Terminal Aerodrome Forecast
Issued by NWS Paducah, KY

Home | Current Version | Previous Version | Text Only | Print | Product List | Glossary On
Versions: 1 2 3 4 5 6 7 8 9 10 11 12 13 14 15 16 17 18 19 20 21
000
FTUS43 KPAH 201552 AAB
TAFPAH
TAF AMD
KPAH 201552Z 2016/2112 18006KT P6SM SCT013 OVC020
      TEMPO 2016/2018 4SM -DZ BR OVC013
     FM201800 18006KT P6SM OVC012
     FM210100 18009KT P6SM OVC012
      TEMPO 2107/2111 4SM -DZ BR=

USA.gov is the U.S. government's official web portal to all federal, state and local government web resources and services.